sensor_id;sensor_type;location;lat;lon;timestamp;pressure;altitude;pressure_sealevel;temperature
78859;BMP280;68210;52.032;4.634;2023-03-23T00:00:54;99994.44;;;13.10
78859;BMP280;68210;52.032;4.634;2023-03-23T00:03:20;99981.59;;;13.07
78859;BMP280;68210;52.032;4.634;2023-03-23T00:05:51;99985.91;;;13.08
78859;BMP280;68210;52.032;4.634;2023-03-23T00:08:18;99977.72;;;13.08
78859;BMP280;68210;52.032;4.634;2023-03-23T00:10:49;99984.72;;;13.09
78859;BMP280;68210;52.032;4.634;2023-03-23T00:13:18;99975.38;;;13.03
78859;BMP280;68210;52.032;4.634;2023-03-23T00:15:46;99976.94;;;13.04
78859;BMP280;68210;52.032;4.634;2023-03-23T00:18:14;99973.84;;;13.09
78859;BMP280;68210;52.032;4.634;2023-03-23T00:20:54;99957.50;;;13.09
78859;BMP280;68210;52.032;4.634;2023-03-23T00:23:22;99954.00;;;13.05
78859;BMP280;68210;52.032;4.634;2023-03-23T00:25:53;99954.38;;;13.00
78859;BMP280;68210;52.032;4.634;2023-03-23T00:28:22;99956.72;;;13.15
78859;BMP280;68210;52.032;4.634;2023-03-23T00:31:01;99947.00;;;13.04
78859;BMP280;68210;52.032;4.634;2023-03-23T00:33:30;99949.34;;;13.06
78859;BMP280;68210;52.032;4.634;2023-03-23T00:35:59;99948.16;;;13.03
78859;BMP280;68210;52.032;4.634;2023-03-23T00:38:25;99931.84;;;13.03
78859;BMP280;68210;52.032;4.634;2023-03-23T00:40:51;99946.22;;;13.04
78859;BMP280;68210;52.032;4.634;2023-03-23T00:43:18;99952.03;;;13.02
78859;BMP280;68210;52.032;4.634;2023-03-23T00:45:44;99928.72;;;13.01
78859;BMP280;68210;52.032;4.634;2023-03-23T00:48:14;99932.22;;;12.98
78859;BMP280;68210;52.032;4.634;2023-03-23T00:50:40;99930.69;;;12.97
78859;BMP280;68210;52.032;4.634;2023-03-23T00:53:06;99933.78;;;12.99
78859;BMP280;68210;52.032;4.634;2023-03-23T00:55:32;99934.53;;;12.96
78859;BMP280;68210;52.032;4.634;2023-03-23T00:57:59;99944.66;;;12.99
78859;BMP280;68210;52.032;4.634;2023-03-23T01:00:25;99925.22;;;12.94
78859;BMP280;68210;52.032;4.634;2023-03-23T01:02:53;99940.78;;;13.00
78859;BMP280;68210;52.032;4.634;2023-03-23T01:05:19;99948.53;;;12.98
78859;BMP280;68210;52.032;4.634;2023-03-23T01:07:45;99938.06;;;13.00
78859;BMP280;68210;52.032;4.634;2023-03-23T01:10:11;99934.94;;;12.98
78859;BMP280;68210;52.032;4.634;2023-03-23T01:12:40;99910.84;;;12.93
78859;BMP280;68210;52.032;4.634;2023-03-23T01:15:06;99897.63;;;12.92
78859;BMP280;68210;52.032;4.634;2023-03-23T01:17:32;99914.72;;;12.89
78859;BMP280;68210;52.032;4.634;2023-03-23T01:19:57;99918.22;;;12.89
78859;BMP280;68210;52.032;4.634;2023-03-23T01:22:23;99893.34;;;12.87
78859;BMP280;68210;52.032;4.634;2023-03-23T01:24:48;99906.94;;;12.91
78859;BMP280;68210;52.032;4.634;2023-03-23T01:27:14;99902.31;;;12.95
78859;BMP280;68210;52.032;4.634;2023-03-23T01:29:39;99899.56;;;12.91
78859;BMP280;68210;52.032;4.634;2023-03-23T01:32:05;99902.28;;;12.91
78859;BMP280;68210;52.032;4.634;2023-03-23T01:34:31;99909.28;;;12.99
78859;BMP280;68210;52.032;4.634;2023-03-23T01:36:56;99908.50;;;12.95
78859;BMP280;68210;52.032;4.634;2023-03-23T01:39:22;99900.75;;;12.97
78859;BMP280;68210;52.032;4.634;2023-03-23T01:41:48;99895.25;;;12.80
78859;BMP280;68210;52.032;4.634;2023-03-23T01:46:43;99899.56;;;12.84
78859;BMP280;68210;52.032;4.634;2023-03-23T01:49:11;99888.69;;;12.84
78859;BMP280;68210;52.032;4.634;2023-03-23T01:52:06;99891.78;;;12.86
78859;BMP280;68210;52.032;4.634;2023-03-23T01:54:36;99887.91;;;12.87
78859;BMP280;68210;52.032;4.634;2023-03-23T01:57:10;99859.16;;;12.86
78859;BMP280;68210;52.032;4.634;2023-03-23T01:59:37;99883.22;;;12.91
78859;BMP280;68210;52.032;4.634;2023-03-23T02:02:03;99881.28;;;12.81
78859;BMP280;68210;52.032;4.634;2023-03-23T02:04:30;99886.72;;;12.81
78859;BMP280;68210;52.032;4.634;2023-03-23T02:06:57;99898.38;;;12.78
78859;BMP280;68210;52.032;4.634;2023-03-23T02:09:25;99888.28;;;12.79
78859;BMP280;68210;52.032;4.634;2023-03-23T02:11:51;99894.50;;;12.79
78859;BMP280;68210;52.032;4.634;2023-03-23T02:14:18;99872.72;;;12.79
78859;BMP280;68210;52.032;4.634;2023-03-23T02:19:41;99896.06;;;12.87
78859;BMP280;68210;52.032;4.634;2023-03-23T02:33:37;99885.16;;;12.80
78859;BMP280;68210;52.032;4.634;2023-03-23T02:36:19;99872.34;;;12.84
78859;BMP280;68210;52.032;4.634;2023-03-23T02:38:56;99875.84;;;12.81
78859;BMP280;68210;52.032;4.634;2023-03-23T02:41:28;99881.28;;;12.81
78859;BMP280;68210;52.032;4.634;2023-03-23T02:43:56;99871.19;;;12.78
78859;BMP280;68210;52.032;4.634;2023-03-23T02:46:23;99853.31;;;12.81
78859;BMP280;68210;52.032;4.634;2023-03-23T02:48:50;99874.28;;;12.80
78859;BMP280;68210;52.032;4.634;2023-03-23T02:51:16;99872.34;;;12.77
78859;BMP280;68210;52.032;4.634;2023-03-23T02:53:43;99873.91;;;12.78
78859;BMP280;68210;52.032;4.634;2023-03-23T02:56:11;99873.50;;;12.83
78859;BMP280;68210;52.032;4.634;2023-03-23T02:58:38;99871.19;;;12.85
78859;BMP280;68210;52.032;4.634;2023-03-23T03:03:52;99870.78;;;12.80
78859;BMP280;68210;52.032;4.634;2023-03-23T03:06:34;99869.63;;;12.88
78859;BMP280;68210;52.032;4.634;2023-03-23T03:09:07;99882.47;;;12.84
78859;BMP280;68210;52.032;4.634;2023-03-23T03:11:44;99864.97;;;12.81
78859;BMP280;68210;52.032;4.634;2023-03-23T03:14:15;99859.91;;;12.80
78859;BMP280;68210;52.032;4.634;2023-03-23T03:16:52;99863.78;;;12.86
78859;BMP280;68210;52.032;4.634;2023-03-23T03:19:34;99874.28;;;12.80
78859;BMP280;68210;52.032;4.634;2023-03-23T03:22:01;99866.53;;;12.76
78859;BMP280;68210;52.032;4.634;2023-03-23T03:24:28;99863.38;;;12.74
78859;BMP280;68210;52.032;4.634;2023-03-23T03:26:57;99852.88;;;12.69
78859;BMP280;68210;52.032;4.634;2023-03-23T03:29:33;99867.25;;;12.66
78859;BMP280;68210;52.032;4.634;2023-03-23T03:32:02;99870.34;;;12.61
78859;BMP280;68210;52.032;4.634;2023-03-23T03:34:30;99866.06;;;12.67
78859;BMP280;68210;52.032;4.634;2023-03-23T03:36:58;99885.06;;;12.53
78859;BMP280;68210;52.032;4.634;2023-03-23T03:39:24;99878.84;;;12.52
78859;BMP280;68210;52.032;4.634;2023-03-23T03:41:50;99857.84;;;12.43
78859;BMP280;68210;52.032;4.634;2023-03-23T03:44:15;99871.06;;;12.44
78859;BMP280;68210;52.032;4.634;2023-03-23T03:46:41;99870.25;;;12.40
78859;BMP280;68210;52.032;4.634;2023-03-23T03:49:08;99885.78;;;12.43
78859;BMP280;68210;52.032;4.634;2023-03-23T03:51:35;99876.91;;;12.53
78859;BMP280;68210;52.032;4.634;2023-03-23T03:54:01;99897.84;;;12.45
78859;BMP280;68210;52.032;4.634;2023-03-23T03:56:27;99897.06;;;12.45
78859;BMP280;68210;52.032;4.634;2023-03-23T03:58:52;99880.34;;;12.43
78859;BMP280;68210;52.032;4.634;2023-03-23T04:01:20;99884.66;;;12.44
78859;BMP280;68210;52.032;4.634;2023-03-23T04:03:48;99891.22;;;12.43
78859;BMP280;68210;52.032;4.634;2023-03-23T04:06:14;99880.41;;;12.46
78859;BMP280;68210;52.032;4.634;2023-03-23T04:08:40;99873.41;;;12.49
78859;BMP280;68210;52.032;4.634;2023-03-23T04:11:11;99892.84;;;12.54
78859;BMP280;68210;52.032;4.634;2023-03-23T04:13:38;99882.72;;;12.48
78859;BMP280;68210;52.032;4.634;2023-03-23T04:16:04;99891.28;;;12.53
78859;BMP280;68210;52.032;4.634;2023-03-23T04:18:29;99892.03;;;12.50
78859;BMP280;68210;52.032;4.634;2023-03-23T04:20:58;99885.06;;;12.49
78859;BMP280;68210;52.032;4.634;2023-03-23T04:23:24;99898.66;;;12.49
78859;BMP280;68210;52.032;4.634;2023-03-23T04:25:50;99901.38;;;12.46
78859;BMP280;68210;52.032;4.634;2023-03-23T04:28:17;99911.88;;;12.54
78859;BMP280;68210;52.032;4.634;2023-03-23T04:30:44;99917.69;;;12.49
78859;BMP280;68210;52.032;4.634;2023-03-23T04:33:10;99907.22;;;12.55
78859;BMP280;68210;52.032;4.634;2023-03-23T04:35:40;99916.91;;;12.49
78859;BMP280;68210;52.032;4.634;2023-03-23T04:38:07;99896.31;;;12.48
78859;BMP280;68210;52.032;4.634;2023-03-23T04:40:36;99937.13;;;12.58
78859;BMP280;68210;52.032;4.634;2023-03-23T04:43:02;99930.09;;;12.50
78859;BMP280;68210;52.032;4.634;2023-03-23T04:45:31;99933.56;;;12.44
78859;BMP280;68210;52.032;4.634;2023-03-23T04:47:57;99945.59;;;12.43
78859;BMP280;68210;52.032;4.634;2023-03-23T04:50:26;99930.09;;;12.47
78859;BMP280;68210;52.032;4.634;2023-03-23T04:52:52;99930.44;;;12.35
78859;BMP280;68210;52.032;4.634;2023-03-23T04:55:20;99937.84;;;12.42
78859;BMP280;68210;52.032;4.634;2023-03-23T04:57:47;99925.44;;;12.44
78859;BMP280;68210;52.032;4.634;2023-03-23T05:00:13;99937.03;;;12.38
78859;BMP280;68210;52.032;4.634;2023-03-23T05:02:42;99947.47;;;12.29
78859;BMP280;68210;52.032;4.634;2023-03-23T05:05:08;99953.19;;;12.10
78859;BMP280;68210;52.032;4.634;2023-03-23T05:07:36;99952.78;;;12.05
78859;BMP280;68210;52.032;4.634;2023-03-23T05:10:02;99960.13;;;12.01
78859;BMP280;68210;52.032;4.634;2023-03-23T05:12:28;99955.41;;;11.94
78859;BMP280;68210;52.032;4.634;2023-03-23T05:14:54;99949.59;;;11.92
78859;BMP280;68210;52.032;4.634;2023-03-23T05:17:19;99953.91;;;12.00
78859;BMP280;68210;52.032;4.634;2023-03-23T05:19:45;99956.66;;;12.04
78859;BMP280;68210;52.032;4.634;2023-03-23T05:22:15;99957.78;;;11.96
78859;BMP280;68210;52.032;4.634;2023-03-23T05:24:42;99956.66;;;12.04
78859;BMP280;68210;52.032;4.634;2023-03-23T05:27:12;99967.53;;;12.04
78859;BMP280;68210;52.032;4.634;2023-03-23T05:29:37;99959.34;;;12.00
78859;BMP280;68210;52.032;4.634;2023-03-23T05:32:07;99969.84;;;12.05
78859;BMP280;68210;52.032;4.634;2023-03-23T05:34:34;99971.00;;;12.01
78859;BMP280;68210;52.032;4.634;2023-03-23T05:37:01;99982.66;;;12.05
78859;BMP280;68210;52.032;4.634;2023-03-23T05:39:28;99969.47;;;12.03
78859;BMP280;68210;52.032;4.634;2023-03-23T05:41:54;99972.59;;;12.09
78859;BMP280;68210;52.032;4.634;2023-03-23T05:44:20;99979.59;;;12.10
78859;BMP280;68210;52.032;4.634;2023-03-23T05:46:47;99973.38;;;12.13
78859;BMP280;68210;52.032;4.634;2023-03-23T05:49:13;99987.31;;;12.08
78859;BMP280;68210;52.032;4.634;2023-03-23T05:51:41;99997.06;;;12.12
78859;BMP280;68210;52.032;4.634;2023-03-23T05:54:07;99994.34;;;12.09
78859;BMP280;68210;52.032;4.634;2023-03-23T05:56:32;99992.41;;;12.13
78859;BMP280;68210;52.032;4.634;2023-03-23T05:58:58;99994.34;;;12.12
78859;BMP280;68210;52.032;4.634;2023-03-23T06:01:24;100006.84;;;12.27
78859;BMP280;68210;52.032;4.634;2023-03-23T06:03:51;99997.44;;;12.11
78859;BMP280;68210;52.032;4.634;2023-03-23T06:06:20;100018.38;;;12.07
78859;BMP280;68210;52.032;4.634;2023-03-23T06:08:46;99992.41;;;12.09
78859;BMP280;68210;52.032;4.634;2023-03-23T06:11:13;100007.16;;;12.12
78859;BMP280;68210;52.032;4.634;2023-03-23T06:13:39;100000.13;;;12.07
78859;BMP280;68210;52.032;4.634;2023-03-23T06:16:05;100026.88;;;12.02
78859;BMP280;68210;52.032;4.634;2023-03-23T06:18:31;100022.22;;;12.06
78859;BMP280;68210;52.032;4.634;2023-03-23T06:20:59;100020.69;;;12.05
78859;BMP280;68210;52.032;4.634;2023-03-23T06:23:26;100036.28;;;12.11
78859;BMP280;68210;52.032;4.634;2023-03-23T06:26:00;100018.44;;;12.17
78859;BMP280;68210;52.032;4.634;2023-03-23T06:28:26;100025.84;;;12.16
78859;BMP280;68210;52.032;4.634;2023-03-23T06:30:52;100033.94;;;12.13
78859;BMP280;68210;52.032;4.634;2023-03-23T06:33:18;100033.97;;;12.16
78859;BMP280;68210;52.032;4.634;2023-03-23T06:35:44;100026.97;;;12.19
78859;BMP280;68210;52.032;4.634;2023-03-23T06:38:10;100023.91;;;12.20
78859;BMP280;68210;52.032;4.634;2023-03-23T06:40:35;100029.34;;;12.24
78859;BMP280;68210;52.032;4.634;2023-03-23T06:43:04;100034.78;;;12.24
78859;BMP280;68210;52.032;4.634;2023-03-23T06:45:30;100027.03;;;12.22
78859;BMP280;68210;52.032;4.634;2023-03-23T06:47:56;100040.97;;;12.17
78859;BMP280;68210;52.032;4.634;2023-03-23T06:50:22;100057.34;;;12.31
78859;BMP280;68210;52.032;4.634;2023-03-23T06:52:49;100040.97;;;12.17
78859;BMP280;68210;52.032;4.634;2023-03-23T06:55:15;100028.53;;;12.16
78859;BMP280;68210;52.032;4.634;2023-03-23T06:57:42;100039.44;;;12.23
78859;BMP280;68210;52.032;4.634;2023-03-23T07:00:09;100051.13;;;12.27
78859;BMP280;68210;52.032;4.634;2023-03-23T07:02:49;100037.16;;;12.29
78859;BMP280;68210;52.032;4.634;2023-03-23T07:13:40;100057.72;;;12.26
78859;BMP280;68210;52.032;4.634;2023-03-23T07:16:36;100051.84;;;12.17
78859;BMP280;68210;52.032;4.634;2023-03-23T07:19:01;100059.66;;;12.29
78859;BMP280;68210;52.032;4.634;2023-03-23T07:21:27;100060.41;;;12.19
78859;BMP280;68210;52.032;4.634;2023-03-23T07:23:52;100069.34;;;12.23
78859;BMP280;68210;52.032;4.634;2023-03-23T07:26:18;100072.03;;;12.16
78859;BMP280;68210;52.032;4.634;2023-03-23T07:28:43;100072.91;;;12.34
78859;BMP280;68210;52.032;4.634;2023-03-23T07:31:11;100061.25;;;12.34
78859;BMP280;68210;52.032;4.634;2023-03-23T07:33:36;100054.22;;;12.26
78859;BMP280;68210;52.032;4.634;2023-03-23T07:36:03;100061.34;;;12.44
78859;BMP280;68210;52.032;4.634;2023-03-23T07:38:29;100060.50;;;12.33
78859;BMP280;68210;52.032;4.634;2023-03-23T07:40:55;100054.59;;;12.24
78859;BMP280;68210;52.032;4.634;2023-03-23T07:43:22;100072.88;;;12.27
78859;BMP280;68210;52.032;4.634;2023-03-23T07:45:48;100065.31;;;12.64
78859;BMP280;68210;52.032;4.634;2023-03-23T07:48:13;100073.78;;;13.22
78859;BMP280;68210;52.032;4.634;2023-03-23T07:50:39;100059.84;;;13.37
78859;BMP280;68210;52.032;4.634;2023-03-23T07:53:05;100058.75;;;13.83
78859;BMP280;68210;52.032;4.634;2023-03-23T07:55:31;100074.34;;;14.21
78859;BMP280;68210;52.032;4.634;2023-03-23T07:57:57;100069.66;;;14.21
78859;BMP280;68210;52.032;4.634;2023-03-23T08:00:23;100077.06;;;14.03
78859;BMP280;68210;52.032;4.634;2023-03-23T08:02:52;100070.44;;;13.98
78859;BMP280;68210;52.032;4.634;2023-03-23T08:05:18;100069.59;;;13.66
78859;BMP280;68210;52.032;4.634;2023-03-23T08:07:44;100071.50;;;13.41
78859;BMP280;68210;52.032;4.634;2023-03-23T08:10:11;100092.09;;;13.36
78859;BMP280;68210;52.032;4.634;2023-03-23T08:12:42;100098.31;;;13.29
78859;BMP280;68210;52.032;4.634;2023-03-23T08:15:09;100097.09;;;13.13
78859;BMP280;68210;52.032;4.634;2023-03-23T08:17:38;100095.09;;;13.10
78859;BMP280;68210;52.032;4.634;2023-03-23T08:20:04;100096.31;;;13.16
78859;BMP280;68210;52.032;4.634;2023-03-23T08:22:37;100109.28;;;13.53
78859;BMP280;68210;52.032;4.634;2023-03-23T08:27:14;100096.38;;;13.33
78859;BMP280;68210;52.032;4.634;2023-03-23T08:29:40;100119.38;;;13.49
78859;BMP280;68210;52.032;4.634;2023-03-23T08:32:06;100103.84;;;13.53
78859;BMP280;68210;52.032;4.634;2023-03-23T08:34:31;100089.88;;;13.93
78859;BMP280;68210;52.032;4.634;2023-03-23T08:36:57;100095.38;;;14.10
78859;BMP280;68210;52.032;4.634;2023-03-23T08:39:23;100101.22;;;14.01
78859;BMP280;68210;52.032;4.634;2023-03-23T08:41:49;100111.28;;;13.87
78859;BMP280;68210;52.032;4.634;2023-03-23T08:44:15;100127.63;;;13.84
78859;BMP280;68210;52.032;4.634;2023-03-23T08:46:41;100118.28;;;13.85
78859;BMP280;68210;52.032;4.634;2023-03-23T08:49:07;100119.91;;;14.13
78859;BMP280;68210;52.032;4.634;2023-03-23T08:51:33;100121.84;;;14.16
78859;BMP280;68210;52.032;4.634;2023-03-23T08:53:59;100105.88;;;14.28
78859;BMP280;68210;52.032;4.634;2023-03-23T08:56:24;100114.03;;;14.66
78859;BMP280;68210;52.032;4.634;2023-03-23T08:58:50;100110.81;;;14.92
78859;BMP280;68210;52.032;4.634;2023-03-23T09:01:15;100106.91;;;15.10
78859;BMP280;68210;52.032;4.634;2023-03-23T09:03:41;100094.44;;;14.92
78859;BMP280;68210;52.032;4.634;2023-03-23T09:06:08;100107.66;;;15.18
78859;BMP280;68210;52.032;4.634;2023-03-23T09:08:34;100110.81;;;15.13
78859;BMP280;68210;52.032;4.634;2023-03-23T09:11:08;100108.47;;;15.15
78859;BMP280;68210;52.032;4.634;2023-03-23T09:13:36;100097.75;;;15.48
78859;BMP280;68210;52.032;4.634;2023-03-23T09:16:02;100088.06;;;15.36
78859;BMP280;68210;52.032;4.634;2023-03-23T09:18:29;100102.75;;;15.63
78859;BMP280;68210;52.032;4.634;2023-03-23T09:20:56;100096.69;;;15.31
78859;BMP280;68210;52.032;4.634;2023-03-23T09:23:22;100113.72;;;15.56
78859;BMP280;68210;52.032;4.634;2023-03-23T09:25:48;100089.53;;;15.51
78859;BMP280;68210;52.032;4.634;2023-03-23T09:28:14;100094.28;;;15.44
78859;BMP280;68210;52.032;4.634;2023-03-23T09:30:40;100107.59;;;15.99
78859;BMP280;68210;52.032;4.634;2023-03-23T09:33:07;100110.59;;;15.54
78859;BMP280;68210;52.032;4.634;2023-03-23T09:35:34;100105.09;;;15.61
78859;BMP280;68210;52.032;4.634;2023-03-23T09:38:01;100116.97;;;15.27
78859;BMP280;68210;52.032;4.634;2023-03-23T09:40:37;100115.44;;;15.19
78859;BMP280;68210;52.032;4.634;2023-03-23T09:49:02;100126.78;;;15.18
78859;BMP280;68210;52.032;4.634;2023-03-23T09:51:52;100125.25;;;15.10
78859;BMP280;68210;52.032;4.634;2023-03-23T09:54:41;100140.84;;;14.99
78859;BMP280;68210;52.032;4.634;2023-03-23T10:00:07;100149.81;;;15.10
78859;BMP280;68210;52.032;4.634;2023-03-23T10:02:52;100156.03;;;15.07
78859;BMP280;68210;52.032;4.634;2023-03-23T10:08:11;100163.09;;;14.84
78859;BMP280;68210;52.032;4.634;2023-03-23T10:16:20;100156.13;;;14.58
78859;BMP280;68210;52.032;4.634;2023-03-23T10:18:52;100177.91;;;14.65
78859;BMP280;68210;52.032;4.634;2023-03-23T10:21:23;100156.09;;;14.65
78859;BMP280;68210;52.032;4.634;2023-03-23T10:24:15;100170.88;;;15.13
78859;BMP280;68210;52.032;4.634;2023-03-23T10:29:33;100162.91;;;15.52
78859;BMP280;68210;52.032;4.634;2023-03-23T10:32:03;100174.63;;;15.53
78859;BMP280;68210;52.032;4.634;2023-03-23T10:34:39;100171.00;;;15.70
78859;BMP280;68210;52.032;4.634;2023-03-23T10:37:28;100164.69;;;15.83
78859;BMP280;68210;52.032;4.634;2023-03-23T10:40:00;100154.78;;;16.06
78859;BMP280;68210;52.032;4.634;2023-03-23T10:42:38;100156.91;;;15.78
78859;BMP280;68210;52.032;4.634;2023-03-23T10:45:16;100140.28;;;15.52
78859;BMP280;68210;52.032;4.634;2023-03-23T10:47:48;100168.84;;;16.05
78859;BMP280;68210;52.032;4.634;2023-03-23T10:50:17;100168.69;;;16.36
78859;BMP280;68210;52.032;4.634;2023-03-23T10:52:44;100175.88;;;16.09
78859;BMP280;68210;52.032;4.634;2023-03-23T10:57:37;100161.72;;;16.24
78859;BMP280;68210;52.032;4.634;2023-03-23T11:00:24;100181.53;;;16.39
78859;BMP280;68210;52.032;4.634;2023-03-23T11:03:04;100165.66;;;16.70
78859;BMP280;68210;52.032;4.634;2023-03-23T11:05:49;100155.19;;;16.58
78859;BMP280;68210;52.032;4.634;2023-03-23T11:08:22;100144.31;;;16.51
78859;BMP280;68210;52.032;4.634;2023-03-23T11:10:58;100155.59;;;16.03
78859;BMP280;68210;52.032;4.634;2023-03-23T11:13:30;100151.25;;;16.16
78859;BMP280;68210;52.032;4.634;2023-03-23T11:15:55;100144.22;;;16.18
78859;BMP280;68210;52.032;4.634;2023-03-23T11:18:26;100151.06;;;16.37
78859;BMP280;68210;52.032;4.634;2023-03-23T11:20:59;100145.59;;;16.37
78859;BMP280;68210;52.032;4.634;2023-03-23T11:23:32;100148.50;;;16.16
78859;BMP280;68210;52.032;4.634;2023-03-23T11:26:19;100139.94;;;16.07
78859;BMP280;68210;52.032;4.634;2023-03-23T11:28:52;100159.16;;;15.93
78859;BMP280;68210;52.032;4.634;2023-03-23T11:31:23;100138.91;;;15.87
78859;BMP280;68210;52.032;4.634;2023-03-23T11:33:55;100139.38;;;15.72
78859;BMP280;68210;52.032;4.634;2023-03-23T11:36:30;100139.41;;;15.69
78859;BMP280;68210;52.032;4.634;2023-03-23T11:38:56;100151.75;;;15.94
78859;BMP280;68210;52.032;4.634;2023-03-23T11:41:23;100147.53;;;15.82
78859;BMP280;68210;52.032;4.634;2023-03-23T11:43:51;100149.59;;;15.61
78859;BMP280;68210;52.032;4.634;2023-03-23T11:52:09;100168.28;;;15.70
78859;BMP280;68210;52.032;4.634;2023-03-23T11:54:46;100146.81;;;15.72
78859;BMP280;68210;52.032;4.634;2023-03-23T11:57:12;100155.78;;;15.76
78859;BMP280;68210;52.032;4.634;2023-03-23T11:59:39;100154.41;;;15.33
78859;BMP280;68210;52.032;4.634;2023-03-23T12:04:35;100169.94;;;15.50
78859;BMP280;68210;52.032;4.634;2023-03-23T12:13:13;100149.00;;;15.23
78859;BMP280;68210;52.032;4.634;2023-03-23T12:16:06;100139.50;;;15.48
78859;BMP280;68210;52.032;4.634;2023-03-23T12:24:17;100140.94;;;15.77
78859;BMP280;68210;52.032;4.634;2023-03-23T12:26:48;100155.84;;;15.62
78859;BMP280;68210;52.032;4.634;2023-03-23T12:44:05;100145.44;;;15.29
78859;BMP280;68210;52.032;4.634;2023-03-23T12:49:04;100139.97;;;15.36
78859;BMP280;68210;52.032;4.634;2023-03-23T12:51:42;100131.72;;;15.47
78859;BMP280;68210;52.032;4.634;2023-03-23T12:54:21;100146.09;;;15.54
78859;BMP280;68210;52.032;4.634;2023-03-23T12:57:08;100134.03;;;15.55
78859;BMP280;68210;52.032;4.634;2023-03-23T12:59:42;100137.41;;;15.73
78859;BMP280;68210;52.032;4.634;2023-03-23T13:02:22;100145.34;;;15.50
78859;BMP280;68210;52.032;4.634;2023-03-23T13:05:12;100147.34;;;15.46
78859;BMP280;68210;52.032;4.634;2023-03-23T13:07:45;100147.75;;;15.38
78859;BMP280;68210;52.032;4.634;2023-03-23T13:10:36;100155.50;;;15.53
78859;BMP280;68210;52.032;4.634;2023-03-23T13:13:05;100161.78;;;15.47
78859;BMP280;68210;52.032;4.634;2023-03-23T13:18:23;100140.28;;;15.49
78859;BMP280;68210;52.032;4.634;2023-03-23T13:21:11;100132.88;;;15.49
78859;BMP280;68210;52.032;4.634;2023-03-23T13:23:44;100159.75;;;15.61
78859;BMP280;68210;52.032;4.634;2023-03-23T13:26:17;100147.53;;;15.82
78859;BMP280;68210;52.032;4.634;2023-03-23T13:31:30;100156.50;;;15.86
78859;BMP280;68210;52.032;4.634;2023-03-23T13:34:22;100157.91;;;16.08
78859;BMP280;68210;52.032;4.634;2023-03-23T13:36:58;100165.72;;;16.06
78859;BMP280;68210;52.032;4.634;2023-03-23T13:39:32;100164.97;;;16.06
78859;BMP280;68210;52.032;4.634;2023-03-23T13:42:00;100167.31;;;16.04
78859;BMP280;68210;52.032;4.634;2023-03-23T13:44:38;100164.19;;;16.02
78859;BMP280;68210;52.032;4.634;2023-03-23T13:47:08;100168.63;;;15.82
78859;BMP280;68210;52.032;4.634;2023-03-23T13:49:52;100169.38;;;15.82
78859;BMP280;68210;52.032;4.634;2023-03-23T13:55:40;100163.63;;;15.70
78859;BMP280;68210;52.032;4.634;2023-03-23T14:03:02;100132.25;;;15.88
78859;BMP280;68210;52.032;4.634;2023-03-23T14:05:37;100144.03;;;15.82
78859;BMP280;68210;52.032;4.634;2023-03-23T14:08:12;100136.25;;;15.74
78859;BMP280;68210;52.032;4.634;2023-03-23T14:11:19;100126.13;;;15.71
78859;BMP280;68210;52.032;4.634;2023-03-23T14:14:26;100115.91;;;15.81
78859;BMP280;68210;52.032;4.634;2023-03-23T14:16:42;100142.16;;;15.69
78859;BMP280;68210;52.032;4.634;2023-03-23T14:18:56;100154.91;;;15.85
78859;BMP280;68210;52.032;4.634;2023-03-23T14:20:57;100148.66;;;15.92
78859;BMP280;68210;52.032;4.634;2023-03-23T14:22:58;100118.16;;;15.93
78859;BMP280;68210;52.032;4.634;2023-03-23T14:25:01;100122.09;;;15.92
78859;BMP280;68210;52.032;4.634;2023-03-23T14:27:19;100104.06;;;15.98
78859;BMP280;68210;52.032;4.634;2023-03-23T14:29:21;100104.78;;;16.09
78859;BMP280;68210;52.032;4.634;2023-03-23T14:31:24;100093.03;;;16.12
78859;BMP280;68210;52.032;4.634;2023-03-23T14:33:26;100085.28;;;16.04
78859;BMP280;68210;52.032;4.634;2023-03-23T14:35:32;100060.03;;;15.89
78859;BMP280;68210;52.032;4.634;2023-03-23T14:37:33;100071.31;;;15.91
78859;BMP280;68210;52.032;4.634;2023-03-23T14:39:36;100072.13;;;15.92
78859;BMP280;68210;52.032;4.634;2023-03-23T14:41:38;100078.81;;;15.80
78859;BMP280;68210;52.032;4.634;2023-03-23T14:43:38;100055.78;;;15.81
78859;BMP280;68210;52.032;4.634;2023-03-23T14:45:39;100061.75;;;15.66
78859;BMP280;68210;52.032;4.634;2023-03-23T14:47:46;100063.72;;;15.66
78859;BMP280;68210;52.032;4.634;2023-03-23T14:49:52;100076.16;;;15.74
78859;BMP280;68210;52.032;4.634;2023-03-23T14:52:27;100089.81;;;15.74
78859;BMP280;68210;52.032;4.634;2023-03-23T14:54:28;100091.03;;;15.66
78859;BMP280;68210;52.032;4.634;2023-03-23T14:56:36;100074.22;;;15.71
78859;BMP280;68210;52.032;4.634;2023-03-23T14:58:36;100081.63;;;15.70
78859;BMP280;68210;52.032;4.634;2023-03-23T15:00:45;100089.75;;;15.84
78859;BMP280;68210;52.032;4.634;2023-03-23T15:02:50;100094.06;;;15.81
78859;BMP280;68210;52.032;4.634;2023-03-23T15:05:03;100083.16;;;15.75
78859;BMP280;68210;52.032;4.634;2023-03-23T15:07:05;100070.69;;;15.74
78859;BMP280;68210;52.032;4.634;2023-03-23T15:09:18;100075.34;;;15.77
78859;BMP280;68210;52.032;4.634;2023-03-23T15:11:21;100078.47;;;15.79
78859;BMP280;68210;52.032;4.634;2023-03-23T15:13:25;100073.00;;;15.75
78859;BMP280;68210;52.032;4.634;2023-03-23T15:15:28;100069.56;;;15.64
78859;BMP280;68210;52.032;4.634;2023-03-23T15:17:31;100052.38;;;15.64
78859;BMP280;68210;52.032;4.634;2023-03-23T15:19:34;100062.91;;;15.69
78859;BMP280;68210;52.032;4.634;2023-03-23T15:21:57;100054.28;;;15.74
78859;BMP280;68210;52.032;4.634;2023-03-23T15:24:20;100048.03;;;15.73
78859;BMP280;68210;52.032;4.634;2023-03-23T15:26:33;100051.06;;;15.85
78859;BMP280;68210;52.032;4.634;2023-03-23T15:28:40;100036.28;;;15.80
78859;BMP280;68210;52.032;4.634;2023-03-23T15:30:51;100034.34;;;15.77
78859;BMP280;68210;52.032;4.634;2023-03-23T15:33:08;100032.34;;;15.80
78859;BMP280;68210;52.032;4.634;2023-03-23T15:35:18;100054.97;;;15.84
78859;BMP280;68210;52.032;4.634;2023-03-23T15:39:20;100057.28;;;15.86
78859;BMP280;68210;52.032;4.634;2023-03-23T15:41:24;100051.94;;;15.76
78859;BMP280;68210;52.032;4.634;2023-03-23T15:43:27;100056.63;;;15.72
78859;BMP280;68210;52.032;4.634;2023-03-23T15:45:28;100047.22;;;15.80